Aérodrome :
LOGIN :

S'inscrire | Disclaimer

   EN    FR    IT 

 










Légende :    VFR   VFR Marginal   IFR   IFR Intensif   IFR Très Intensif
Visi : 
Plafond : 
>= 8 km
>= 3000ft
5 à 8 km
1000 à 3000 ft
1500m à 5 km
500 à 1000 ft
800 à 1500m
200 à 500 ft
< 800m
< 200 ft
Symboles :   Orages  Brouillard  Fortes neiges  Fortes précipitations  Vent > 20 kt
SIGMETs :   Divers  Orages  Givrage  Turbulence  Onde Orograph.  Cendres Volcan.






- Altitude de l'aérodrome : 247 ft
- Code IATA : BLL


EKBI - Billund

DERNIER METAR :
  • 202120Z AUTO 29014KT 9999 -RASN OVC013/// 04/03 Q0998 RERA

METARs EXPIRÉS :
  • 202050Z AUTO 28021KT 7000 -RASN OVC011/// 04/03 Q0997 RERA
  • 202020Z AUTO 24020G32KT 200V280 9999 +RA OVC010/// 06/05 Q0996
  • 201950Z AUTO 20015G26KT 170V230 9999 RA OVC010/// 07/06 Q0995
  • 201920Z AUTO 20018G31KT 9000 RA OVC009/// 07/06 Q0996 RERA
  • 201850Z AUTO 19019G31KT 9000 RA OVC008/// 07/06 Q0997

TAF TAF EKBI
Valide du 20 à 18h jusqu'au 21 à 18h UTC


201716Z 2018/2118 21018KT 7000 BKN012
TEMPO 2018/2021 22020G32KT 2800 RADZ BKN006
BECMG 2021/2024 28015KT SCT020
TEMPO 2100/2109 27015G25KT SHRA SCT020CB
BECMG 2109/2112 24018G30KT
TEMPO 2115/2118 BKN010



MET'MAP, la Météo Aéronautique d'un coup d'oeil ! - Copyright ORBIFLY Décembre 2007 - Disclaimer

ORBIFLY MET'MAP TEAM :

Programmation & Développement : Alexandra Zaïnal
Sur une idée originale de : Baudouin d'Aumeries
Assistance à la programmation : Marc-Olivier Méhu
Soutien technique & logistique : Manuel Goepfert

Contact : metmap@orbifly.com




SOURCES & CREDITS :

   NOAA